Terminal Aerodrome Forecast
Issued by NWS Upton, NY

Current Version | Previous Version | Text Only | Print | Product List | Glossary On
Versions: 1 2 3 4 5 6 7 8 9 10 11 12 13 14 15 16 17 18 19 20 21 22 23 24 25 26 27 28 29
000 FTUS41 KOKX 070058 AAA TAFISP TAF AMD KISP 070058Z 0701/0724 15008KT P6SM BKN020 FM070300 17006KT 4SM BR BKN015 FM070600 17006KT 2SM BR BKN004 FM071300 18009KT 4SM BR SCT004 BKN015 FM071500 19014KT 6SM HZ SCT015 BKN040=

USA.gov is the U.S. government's official web portal to all federal, state and local government web resources and services.